Weather observations for the past three days for
Webster City Municipal Airport
Metric (Imperial)
Date Time (cdt) Wind (kph) Vis. (km) Weather Sky Cond. Temperature (ºC) Relative Humidity Wind Chill (°C) Heat Index (°C) Pressure Precipitation (cm)
Air Dwpt 6 hour altimeter (cm) sea level (mb) 1 hr 3 hr 6 hr
Max. Min.
04 20:55 NW 26 G 35 16.09 Mostly Cloudy FEW036 SCT065 BKN090 13 0 41% 75.44 0.0
04 20:35 NW 28 16.09 Light Drizzle FEW035 SCT070 BKN080 13 1 44% 75.41 0.0
04 20:15 NW 41 G 50 16.09 Mostly Cloudy and Breezy BKN100 BKN120 14 -1 36% 75.39 0.0
04 19:55 NW 26 G 41 16.09 Partly Cloudy SCT110 14 -1 36% 75.36 0.0
04 19:35 NW 43 G 56 16.09 Mostly Cloudy and Windy FEW075 SCT100 BKN120 15 -1 34% 75.36 0.0
04 19:15 NW 41 G 54 16.09 A Few Clouds and Breezy FEW120 16 -1 31% 75.29 0.0
04 18:55 NW 50 16.09 A Few Clouds and Windy FEW120 17 0 32% 75.29 0.0
04 18:35 N 41 G 57 16.09 Fair and Breezy CLR 18 -2 26% 75.26 0.0
04 18:15 NW 46 16.09 Fair and Windy CLR 19 -2 24% 75.26 0.0
04 17:55 NW 48 G 61 16.09 Fair and Windy CLR 21 -2 21% 75.23 0.0
04 17:35 NW 48 G 61 16.09 Fair and Windy CLR 21 -1 23% 75.18 0.0
04 17:15 NW 46 G 56 16.09 Fair and Windy CLR 22 0 23% 75.16 0.0
04 16:55 NW 41 G 54 16.09 Fair and Breezy CLR 22 -1 22% 75.13 0.0
04 16:35 NW 35 G 52 16.09 Fair and Breezy CLR 23 0 22% 75.11 0.0
04 16:15 NW 31 G 52 16.09 Fair CLR 23 0 22% 75.11 0.0
04 15:55 NW 37 G 50 16.09 Fair and Breezy CLR 23 0 22% 75.08 0.0
04 15:35 NW 30 G 46 16.09 Fair CLR 23 0 22% 75.08 0.0
04 15:15 N 41 G 52 16.09 Fair and Breezy CLR 24 0 21% 25 75.08 0.0
04 14:55 NW 35 G 50 16.09 Fair and Breezy CLR 24 0 21% 25 75.06 0.0
04 14:35 NW 43 16.09 Fair and Windy CLR 24 2 24% 25 75.06 0.0
04 14:15 NW 39 G 50 16.09 Fair and Breezy CLR 25 3 24% 25 75.03 0.0
04 13:55 NW 35 G 50 16.09 Fair and Breezy CLR 25 5 28% 25 75.01 0.0
04 13:35 NW 35 G 48 16.09 Fair and Breezy CLR 25 5 28% 25 75.01 0.0
04 13:15 NW 31 G 46 16.09 Fair CLR 25 6 30% 25 75.01 0.0
04 12:55 NW 33 G 48 16.09 Fair and Breezy CLR 25 5 28% 25 74.98 0.0
04 12:35 W 39 G 48 16.09 Fair and Breezy CLR 26 5 26% 26 74.96 0.0
04 12:15 W 30 G 44 16.09 Fair CLR 26 4 24% 26 74.96 0.0
04 11:55 W 33 G 52 16.09 Fair and Breezy CLR 25 4 26% 25 74.98 0.0
04 11:35 W 39 G 57 16.09 Fair and Breezy CLR 25 4 26% 25 74.98 0.0
04 11:15 W 43 G 56 16.09 Fair and Windy CLR 25 3 24% 25 74.98 0.0
04 10:55 W 43 G 52 16.09 Fair and Windy CLR 25 3 24% 25 74.98 0.0
04 10:35 W 31 G 44 16.09 Fair CLR 24 4 27% 25 74.98 0.0
04 10:15 SW 30 G 41 16.09 Fair CLR 23 4 29% 74.98 0.0
04 09:55 SW 28 G 39 16.09 Fair CLR 22 4 31% 75.01 0.0
04 09:35 SW 26 16.09 Fair CLR 22 4 31% 75.01 0.0
04 09:15 SW 24 G 37 16.09 Fair CLR 21 4 33% 75.03 0.0
04 08:55 SW 26 16.09 Fair CLR 19 4 37% 75.03 0.0
04 08:35 SW 24 16.09 Fair CLR 18 4 40% 75.06 0.0
04 08:15 SW 22 16.09 Partly Cloudy SCT110 16 4 45% 75.06 0.0
04 07:55 SW 19 16.09 Partly Cloudy SCT110 15 4 48% 75.06 0.0
04 07:35 SW 19 16.09 A Few Clouds FEW110 13 4 55% 75.06 0.0
04 06:55 S 13 16.09 Mostly Cloudy BKN110 10 3 62% 8 75.06 0.0
04 06:35 S 17 16.09 Mostly Cloudy BKN110 9 3 66% 7 75.08 0.0
04 06:15 SW 19 16.09 Partly Cloudy SCT110 8 3 71% 5 75.08 0.0
04 05:55 SW 20 16.09 Fair CLR 8 2 66% 5 75.11 0.0
04 05:35 S 17 16.09 Fair CLR 8 2 66% 6 75.11 0.0
04 05:15 SW 20 16.09 Fair CLR 8 2 66% 5 75.13 0.0
04 04:55 SW 19 16.09 Fair CLR 8 2 66% 5 75.16 0.0
04 04:35 S 17 16.09 Fair CLR 8 2 66% 6 75.16 0.0
04 04:15 S 17 16.09 Fair CLR 8 1 62% 6 75.16 0.0
04 03:55 SW 15 16.09 Fair CLR 8 1 62% 6 75.18 0.0
04 03:35 SW 19 16.09 Fair CLR 8 2 66% 5 75.18 0.0
04 03:15 S 17 16.09 Fair CLR 9 1 58% 7 75.21 0.0
04 02:55 SW 19 16.09 Fair CLR 9 1 58% 7 75.23 0.0
04 02:35 SW 19 16.09 Fair CLR 9 1 58% 7 75.26 0.0
04 02:15 SW 17 16.09 Fair CLR 9 1 58% 7 75.29 0.0
04 01:55 SW 17 16.09 Fair CLR 9 1 58% 7 75.31 0.0
04 01:35 S 17 16.09 Fair CLR 9 1 58% 7 75.31 0.0
04 01:15 SW 15 16.09 Fair CLR 9 0 54% 7 75.34 0.0
04 00:55 SW 13 16.09 Fair CLR 10 0 50% 8 75.36 0.0
04 00:35 SW 15 16.09 Fair CLR 10 0 50% 8 75.36 0.0
04 00:15 SW 13 16.09 Fair CLR 11 0 47% 75.39 0.0
03 23:55 SW 11 16.09 Fair CLR 10 0 50% 9 75.41 0.0
03 23:35 SW 11 16.09 Fair CLR 10 0 50% 9 75.41 0.0
03 23:15 SW 11 16.09 Fair CLR 12 0 44% 75.44 0.0
03 22:55 SW 13 16.09 Fair CLR 13 0 41% 75.46 0.0
03 22:35 SW 15 16.09 Fair CLR 13 -1 38% 75.46 0.0
03 22:15 SW 15 16.09 Fair CLR 13 -1 38% 75.49 0.0
03 21:55 SW 15 16.09 Fair CLR 13 -1 38% 75.49 0.0
03 21:35 SW 13 16.09 Fair CLR 15 -1 34% 75.49 0.0
03 21:15 SW 9 16.09 Fair CLR 16 -1 31% 75.49 0.0
03 20:55 SW 9 14.48 Fair CLR 16 -1 31% 75.49 0.0
03 20:35 W 9 16.09 Fair CLR 19 -2 24% 75.49 0.0
03 20:15 W 9 16.09 Fair CLR 19 -2 24% 75.46 0.0
03 19:55 NW 7 16.09 Fair CLR 20 -2 23% 75.49 0.0
03 19:35 NW 13 16.09 Fair CLR 21 -2 21% 75.49 0.0
03 19:15 NW 13 16.09 Fair CLR 22 -2 20% 75.49 0.0
03 18:55 NW 26 16.09 Fair CLR 22 -3 19% 75.49 0.0
03 18:35 NW 26 16.09 Fair CLR 23 -3 17% 75.51 0.0
03 18:15 NW 22 16.09 Fair CLR 23 -2 19% 75.51 0.0
03 17:55 W 24 16.09 Fair CLR 23 -2 19% 75.51 0.0
03 17:35 NW 28 16.09 Fair CLR 23 -2 19% 75.51 0.0
03 17:15 NW 24 16.09 Fair CLR 23 -2 19% 75.51 0.0
03 16:55 Calm 16.09 Fair CLR 23 -2 19% 75.51 0.0
03 16:35 NW 20 G 41 16.09 Fair CLR 24 -2 18% 24 75.54 0.0
03 16:15 NW 33 G 43 16.09 Fair and Breezy CLR 24 -2 18% 24 75.54 0.0
03 15:55 NW 26 G 43 16.09 Fair CLR 23 -2 19% 75.54 0.0
03 15:35 NW 35 G 48 16.09 Fair and Breezy CLR 24 -1 19% 24 75.54 0.0
03 14:55 NW 31 G 46 16.09 Fair CLR 23 -4 16% 75.57 0.0
03 14:35 NW 28 G 43 16.09 Fair CLR 23 -3 17% 75.57 0.0
03 14:15 NW 35 16.09 Fair and Breezy CLR 23 -1 20% 75.57 0.0
03 13:55 NW 26 G 44 16.09 Fair CLR 23 0 22% 75.57 0.0
03 13:35 N 26 G 48 16.09 Fair CLR 22 -1 22% 75.57 0.0
03 13:15 N 33 G 52 16.09 Fair and Breezy CLR 22 0 23% 75.57 0.0
03 12:55 NW 35 G 54 16.09 Fair and Breezy CLR 22 1 25% 75.59 0.0
03 12:35 N 35 G 54 16.09 Fair and Breezy CLR 22 1 25% 75.59 0.0
03 12:15 NW 44 16.09 Fair and Windy CLR 22 1 25% 75.59 0.0
03 11:55 N 35 G 57 16.09 Fair and Breezy CLR 21 1 27% 75.59 0.0
03 11:35 NW 31 G 46 16.09 Fair CLR 21 2 29% 75.62 0.0
03 11:15 NW 41 G 50 16.09 Fair and Breezy CLR 20 1 28% 75.62 0.0
03 10:55 NW 33 G 52 16.09 Fair and Breezy CLR 20 2 30% 75.59 0.0
03 10:35 NW 41 16.09 Fair and Breezy CLR 19 2 32% 75.59 0.0
03 10:15 NW 35 16.09 Fair and Breezy CLR 19 2 32% 75.59 0.0
03 09:55 NW 33 16.09 Fair and Breezy CLR 18 2 34% 75.59 0.0
03 09:35 NW 31 16.09 Fair CLR 17 2 37% 75.59 0.0
03 09:15 W 28 G 39 16.09 Fair CLR 16 2 39% 75.59 0.0
03 08:55 W 28 16.09 Fair CLR 15 2 42% 75.57 0.0
03 08:35 W 31 G 41 16.09 Fair CLR 14 2 44% 75.57 0.0
03 08:15 W 31 16.09 Fair CLR 13 1 44% 75.59 0.0
03 07:55 SW 30 16.09 Fair CLR 12 1 47% 75.57 0.0
03 07:35 SW 30 G 41 16.09 Fair CLR 12 1 47% 75.57 0.0
03 07:15 SW 30 G 46 16.09 Fair CLR 12 1 47% 75.57 0.0
03 06:55 SW 31 16.09 Fair CLR 11 0 47% 75.54 0.0
03 06:35 SW 28 G 39 16.09 Fair CLR 11 1 50% 75.54 0.0
03 06:15 SW 31 16.09 A Few Clouds FEW120 11 0 47% 75.54 0.0
03 05:35 SW 30 16.09 A Few Clouds FEW120 11 0 47% 75.57 0.0
03 05:15 SW 30 G 39 16.09 Fair CLR 11 0 47% 75.59 0.0
03 04:55 S 26 G 35 16.09 A Few Clouds FEW120 11 0 47% 75.62 0.0
03 04:35 SW 30 16.09 Mostly Cloudy SCT100 BKN120 11 0 47% 75.64 0.0
03 04:15 S 30 16.09 Overcast FEW040 FEW075 OVC100 12 0 44% 75.64 0.0
03 03:55 SW 28 16.09 Overcast FEW040 FEW070 OVC110 12 0 44% 75.67 0.0
03 03:35 S 31 G 41 16.09 Overcast OVC110 12 -1 41% 75.64 0.0
03 03:15 S 33 16.09 Overcast and Breezy OVC110 12 -1 41% 75.69 0.0
03 02:55 S 37 G 46 16.09 Overcast and Breezy FEW075 BKN095 OVC120 13 -1 38% 75.69 0.0
03 02:35 S 35 16.09 Overcast and Breezy SCT075 OVC095 13 -1 38% 75.74 0.0
03 02:15 S 30 16.09 Overcast FEW060 FEW070 OVC100 12 -1 41% 75.77 0.0
03 01:55 S 26 16.09 Overcast FEW060 BKN095 OVC120 12 -1 41% 75.82 0.0
03 01:35 S 20 16.09 Mostly Cloudy BKN110 11 -1 44% 75.82 0.0
03 01:15 S 24 16.09 A Few Clouds FEW095 FEW120 11 -1 44% 75.82 0.0
03 00:55 S 22 16.09 Partly Cloudy FEW100 SCT120 11 -1 44% 75.84 0.0
03 00:35 S 22 16.09 Overcast OVC100 11 0 47% 75.87 0.0
03 00:15 S 19 16.09 Mostly Cloudy BKN110 11 0 47% 75.9 0.0
02 23:55 S 19 16.09 A Few Clouds FEW100 10 -1 47% 8 75.9 0.0
02 23:35 S 20 16.09 Partly Cloudy SCT100 10 -1 47% 8 75.92 0.0
02 23:15 S 19 16.09 Fair CLR 11 -1 44% 75.92 0.0
02 22:55 S 17 16.09 Fair CLR 11 -1 44% 75.95 0.0
02 22:35 S 19 16.09 Fair CLR 10 -1 47% 8 75.97 0.0
02 22:15 S 22 16.09 Fair CLR 11 -2 41% 76 0.0
02 21:55 S 17 16.09 Fair CLR 11 -1 44% 76.02 0.0
02 21:35 S 17 16.09 Partly Cloudy SCT110 11 -1 44% 76.02 0.0
02 21:15 S 17 16.09 Mostly Cloudy BKN110 12 -1 41% 76.02 0.0
02 20:55 S 15 16.09 Partly Cloudy SCT100 12 -1 41% 76.02 0.0
02 20:35 S 17 16.09 A Few Clouds FEW120 13 -2 36% 76.02 0.0
02 20:15 S 17 16.09 A Few Clouds FEW120 14 -2 33% 76.02 0.0
02 19:55 SW 19 16.09 Fair CLR 16 -3 27% 76.02 0.0
02 19:35 SW 20 16.09 Fair CLR 17 -3 25% 76.02 0.0
02 19:15 SW 15 G 24 16.09 Fair CLR 18 -4 22% 76.05 0.0
02 18:55 S 17 16.09 Fair CLR 18 -4 22% 76.05 0.0
02 18:35 SW 19 16.09 Fair CLR 18 -4 22% 76.07 0.0
02 18:15 W 15 16.09 Fair CLR 18 -4 22% 76.07 0.0
02 17:55 W 17 16.09 Fair CLR 18 -5 21% 76.1 0.0
02 17:35 W 17 16.09 Fair CLR 18 -4 22% 76.12 0.0
02 17:15 SW 9 G 26 16.09 Fair CLR 18 -4 22% 76.12 0.0
02 16:55 W 9 G 22 16.09 Fair CLR 18 -5 21% 76.15 0.0
02 16:35 W 19 16.09 Fair CLR 18 -5 21% 76.17 0.0
02 16:15 W 26 G 35 16.09 Fair CLR 18 -5 21% 76.17 0.0
02 15:55 SW 15 G 26 16.09 Fair CLR 17 -4 24% 76.2 0.0
02 15:35 SW 17 G 31 16.09 Fair CLR 17 -4 24% 76.23 0.0
02 15:15 SW 13 G 24 16.09 Fair CLR 17 -4 24% 76.25 0.0
02 14:55 SW 11 G 24 16.09 Fair CLR 16 -4 25% 76.28 0.0
02 14:35 Vrbl 11 G 31 16.09 Fair CLR 16 -5 23% 76.3 0.0
02 14:15 Vrbl 9 G 31 16.09 Fair CLR 16 -5 23% 76.33 0.0
02 13:55 NW 20 16.09 Fair CLR 15 -4 27% 76.35 0.0
02 13:35 Vrbl 9 G 22 16.09 Fair CLR 15 -5 25% 76.38 0.0
02 13:15 SW 15 16.09 Fair CLR 15 -4 27% 76.4 0.0
02 12:55 W 19 16.09 Fair CLR 14 -5 27% 76.43 0.0
02 12:35 S 9 G 28 16.09 Fair CLR 13 -5 28% 76.45 0.0
02 12:15 Calm 16.09 Fair CLR 13 -5 28% 76.45 0.0
02 11:55 Vrbl 11 G 26 16.09 Fair CLR 13 -5 28% 76.48 0.0
02 11:35 NW 15 16.09 Fair CLR 12 -6 28% 76.48 0.0
02 11:15 W 17 16.09 Fair CLR 12 -5 30% 76.5 0.0
02 10:55 Vrbl 9 G 24 16.09 Fair CLR 12 -5 30% 76.5 0.0
02 10:35 NW 15 16.09 Fair CLR 12 -4 33% 76.5 0.0
02 10:15 Vrbl 9 G 20 16.09 Fair CLR 11 -4 35% 76.53 0.0
02 09:55 W 9 G 22 16.09 Fair CLR 11 -3 38% 76.53 0.0
02 09:35 W 13 16.09 Fair CLR 10 -4 37% 8 76.53 0.0
02 09:15 W 11 16.09 Fair CLR 9 -3 43% 8 76.53 0.0
02 08:55 Vrbl 6 16.09 Fair CLR 9 -3 43% 76.56 0.0
02 08:35 W 6 16.09 Fair CLR 8 -1 53% 76.53 0.0
02 08:15 Calm 16.09 Fair CLR 6 0 66% 76.56 0.0
02 07:55 Calm 16.09 Fair CLR 5 0 70% 76.53 0.0
02 07:35 Calm 16.09 Fair CLR 3 0 81% 76.53 0.0
02 07:15 Calm 16.09 Fair CLR 2 -1 81% 76.53 0.0
02 06:55 NW 7 16.09 Fair CLR 1 -2 81% -1 76.53 0.0
02 06:35 NW 6 16.09 Fair CLR -1 -3 86% 76.5 0.0
02 06:15 NW 6 16.09 Fair CLR -1 -3 86% 76.5 0.0
02 05:55 NW 7 16.09 Fair CLR -1 -3 86% -3 76.5 0.0
02 05:35 NW 9 16.09 Fair CLR -1 -3 86% -4 76.5 0.0
02 05:15 NW 9 16.09 Fair CLR -1 -3 86% -4 76.48 0.0
02 04:55 NW 6 16.09 Fair CLR -1 -3 86% 76.48 0.0
02 04:35 NW 7 16.09 Fair CLR -1 -3 86% -3 76.48 0.0
02 04:15 NW 11 16.09 Fair CLR 0 -3 80% -3 76.48 0.0
02 03:55 NW 6 16.09 Fair CLR -1 -3 86% 76.48 0.0
02 03:35 NW 9 16.09 Fair CLR 0 -3 80% -3 76.45 0.0
02 03:15 N 7 16.09 Fair CLR 0 -3 80% -2 76.45 0.0
02 02:55 NW 7 16.09 Fair CLR 1 -3 75% -1 76.45 0.0
02 02:15 NW 9 16.09 Fair CLR 1 -2 81% -2 76.48 0.0
02 01:55 NW 9 16.09 Fair CLR 1 -2 81% -2 76.48 0.0
02 01:35 NW 7 16.09 Fair CLR 1 -3 75% -1 76.48 0.0
02 01:15 NW 7 16.09 Fair CLR 2 -3 70% 0 76.48 0.0
02 00:55 NW 7 16.09 Fair CLR 2 -3 70% 0 76.48 0.0
02 00:35 N 7 16.09 Fair CLR 3 -3 65% 1 76.48 0.0
02 00:15 N 9 16.09 Fair CLR 3 -3 65% 1 76.48 0.0
01 23:55 N 11 16.09 Fair CLR 3 -3 65% 0 76.45 0.0
01 23:35 NW 6 16.09 Fair CLR 4 -3 61% 76.45 0.0
01 23:15 N 9 16.09 Fair CLR 4 -3 61% 2 76.45 0.0
01 22:55 N 7 16.09 Fair CLR 5 -2 61% 4 76.45 0.0
01 22:35 N 9 16.09 A Few Clouds FEW075 5 -2 61% 3 76.43 0.0
01 22:15 NW 11 16.09 A Few Clouds FEW075 4 -3 61% 2 76.43 0.0
01 21:55 N 9 16.09 Partly Cloudy FEW060 SCT075 6 -2 57% 4 76.43 0.0
01 21:35 N 13 16.09 Mostly Cloudy BKN060 BKN075 7 -2 53% 5 76.4 0.0
01 21:15 N 15 16.09 Overcast SCT060 OVC075 8 -2 50% 6 76.38 0.0
Date Time (cdt) Wind (kph) Vis. (km) Weather Sky Cond. Air Dwpt Max. Min. Relative Humidity Wind Chill (°C) Heat Index (°C) altimeter (cm) sea level (mb) 1 hr 3 hr 6 hr
6 hour
Temperature (ºC) Pressure Precipitation (cm)